sensor_id;sensor_type;location;lat;lon;timestamp;temperature;humidity
35682;DHT22;21805;51.022;4.782;2023-05-09T05:32:14;16.70;99.90
35682;DHT22;21805;51.022;4.782;2023-05-09T06:23:38;16.90;99.90
35682;DHT22;21805;51.022;4.782;2023-05-09T06:28:54;17.00;99.90
35682;DHT22;21805;51.022;4.782;2023-05-09T06:39:50;17.00;99.90
35682;DHT22;21805;51.022;4.782;2023-05-09T06:48:34;16.80;99.90
35682;DHT22;21805;51.022;4.782;2023-05-09T06:51:44;16.80;99.90
35682;DHT22;21805;51.022;4.782;2023-05-09T06:54:36;16.80;99.90
35682;DHT22;21805;51.022;4.782;2023-05-09T06:57:01;16.80;99.90
35682;DHT22;21805;51.022;4.782;2023-05-09T07:02:59;16.90;99.90
35682;DHT22;21805;51.022;4.782;2023-05-09T07:08:56;17.10;99.90
35682;DHT22;21805;51.022;4.782;2023-05-09T07:11:48;17.20;99.90
35682;DHT22;21805;51.022;4.782;2023-05-09T07:14:26;17.20;99.90
35682;DHT22;21805;51.022;4.782;2023-05-09T07:16:55;17.20;99.90
35682;DHT22;21805;51.022;4.782;2023-05-09T07:19:41;17.30;99.90
35682;DHT22;21805;51.022;4.782;2023-05-09T07:24:50;17.40;99.90
35682;DHT22;21805;51.022;4.782;2023-05-09T07:39:10;17.20;99.90
35682;DHT22;21805;51.022;4.782;2023-05-09T07:41:49;17.30;99.90
35682;DHT22;21805;51.022;4.782;2023-05-09T07:44:19;17.30;99.90
35682;DHT22;21805;51.022;4.782;2023-05-09T07:49:56;17.40;99.90
35682;DHT22;21805;51.022;4.782;2023-05-09T07:52:24;17.40;99.90
35682;DHT22;21805;51.022;4.782;2023-05-09T07:54:50;17.50;99.90
35682;DHT22;21805;51.022;4.782;2023-05-09T08:00:17;17.40;99.90
35682;DHT22;21805;51.022;4.782;2023-05-09T08:02:48;17.40;99.90
35682;DHT22;21805;51.022;4.782;2023-05-09T08:05:22;17.30;99.90
35682;DHT22;21805;51.022;4.782;2023-05-09T08:13:27;17.40;99.90
35682;DHT22;21805;51.022;4.782;2023-05-09T08:15:56;17.40;99.90
35682;DHT22;21805;51.022;4.782;2023-05-09T08:18:26;17.30;99.90
35682;DHT22;21805;51.022;4.782;2023-05-09T08:20:53;17.20;99.90
35682;DHT22;21805;51.022;4.782;2023-05-09T08:23:21;17.20;99.90
35682;DHT22;21805;51.022;4.782;2023-05-09T08:25:51;17.40;99.90
35682;DHT22;21805;51.022;4.782;2023-05-09T08:28:28;17.50;99.90
35682;DHT22;21805;51.022;4.782;2023-05-09T08:30:55;17.50;99.90
35682;DHT22;21805;51.022;4.782;2023-05-09T08:33:22;17.50;99.90
35682;DHT22;21805;51.022;4.782;2023-05-09T08:35:55;17.50;99.90
35682;DHT22;21805;51.022;4.782;2023-05-09T08:38:22;17.50;99.90
35682;DHT22;21805;51.022;4.782;2023-05-09T08:40:50;17.60;99.90
35682;DHT22;21805;51.022;4.782;2023-05-09T08:43:25;17.60;99.90
35682;DHT22;21805;51.022;4.782;2023-05-09T08:46:06;17.70;99.90
35682;DHT22;21805;51.022;4.782;2023-05-09T08:48:37;17.60;99.90
35682;DHT22;21805;51.022;4.782;2023-05-09T08:57:07;17.50;99.90
35682;DHT22;21805;51.022;4.782;2023-05-09T08:59:55;17.50;99.90
35682;DHT22;21805;51.022;4.782;2023-05-09T09:02:33;17.30;99.90
35682;DHT22;21805;51.022;4.782;2023-05-09T09:07:46;17.30;99.90
35682;DHT22;21805;51.022;4.782;2023-05-09T09:10:12;17.30;99.90
35682;DHT22;21805;51.022;4.782;2023-05-09T09:15:39;17.20;99.90
35682;DHT22;21805;51.022;4.782;2023-05-09T09:18:07;17.10;99.90
35682;DHT22;21805;51.022;4.782;2023-05-09T09:20:41;17.20;99.90
35682;DHT22;21805;51.022;4.782;2023-05-09T09:23:09;17.30;99.90
35682;DHT22;21805;51.022;4.782;2023-05-09T09:25:38;17.10;99.90
35682;DHT22;21805;51.022;4.782;2023-05-09T09:28:06;17.20;99.90
35682;DHT22;21805;51.022;4.782;2023-05-09T09:33:39;17.00;99.90
35682;DHT22;21805;51.022;4.782;2023-05-09T09:39:16;16.90;99.90
35682;DHT22;21805;51.022;4.782;2023-05-09T09:41:48;16.90;99.90
35682;DHT22;21805;51.022;4.782;2023-05-09T09:44:31;17.10;99.90
35682;DHT22;21805;51.022;4.782;2023-05-09T09:47:02;17.20;99.90
35682;DHT22;21805;51.022;4.782;2023-05-09T09:49:40;17.10;99.90
35682;DHT22;21805;51.022;4.782;2023-05-09T09:52:12;17.20;99.90
35682;DHT22;21805;51.022;4.782;2023-05-09T09:55:00;17.20;99.90
35682;DHT22;21805;51.022;4.782;2023-05-09T09:57:37;17.20;99.90
35682;DHT22;21805;51.022;4.782;2023-05-09T10:00:04;17.10;99.90
35682;DHT22;21805;51.022;4.782;2023-05-09T10:02:32;17.10;99.90
35682;DHT22;21805;51.022;4.782;2023-05-09T10:05:07;17.00;99.90
35682;DHT22;21805;51.022;4.782;2023-05-09T10:07:38;16.90;99.90
35682;DHT22;21805;51.022;4.782;2023-05-09T10:10:04;17.00;99.90
35682;DHT22;21805;51.022;4.782;2023-05-09T10:12:36;16.90;99.90
35682;DHT22;21805;51.022;4.782;2023-05-09T10:15:03;16.80;99.90
35682;DHT22;21805;51.022;4.782;2023-05-09T10:17:29;16.90;99.90
35682;DHT22;21805;51.022;4.782;2023-05-09T10:19:57;16.80;99.90
35682;DHT22;21805;51.022;4.782;2023-05-09T10:22:26;16.80;99.90
35682;DHT22;21805;51.022;4.782;2023-05-09T10:25:05;16.80;99.90
35682;DHT22;21805;51.022;4.782;2023-05-09T10:27:35;16.80;99.90
35682;DHT22;21805;51.022;4.782;2023-05-09T10:33:13;16.70;99.90
35682;DHT22;21805;51.022;4.782;2023-05-09T10:35:45;16.80;99.90
35682;DHT22;21805;51.022;4.782;2023-05-09T10:38:15;16.80;99.90
35682;DHT22;21805;51.022;4.782;2023-05-09T10:40:42;16.70;99.90
35682;DHT22;21805;51.022;4.782;2023-05-09T10:43:08;16.80;99.90
35682;DHT22;21805;51.022;4.782;2023-05-09T10:48:05;16.90;99.90
35682;DHT22;21805;51.022;4.782;2023-05-09T10:50:34;16.90;99.90
35682;DHT22;21805;51.022;4.782;2023-05-09T10:53:06;16.90;99.90
35682;DHT22;21805;51.022;4.782;2023-05-09T10:58:19;16.90;99.90
35682;DHT22;21805;51.022;4.782;2023-05-09T11:00:46;16.90;99.90
35682;DHT22;21805;51.022;4.782;2023-05-09T11:03:13;17.00;99.90
35682;DHT22;21805;51.022;4.782;2023-05-09T11:05:39;17.00;99.90
35682;DHT22;21805;51.022;4.782;2023-05-09T11:08:40;17.00;99.90
35682;DHT22;21805;51.022;4.782;2023-05-09T11:10:58;16.90;99.90
35682;DHT22;21805;51.022;4.782;2023-05-09T11:13:31;16.90;99.90
35682;DHT22;21805;51.022;4.782;2023-05-09T11:18:28;16.90;99.90
35682;DHT22;21805;51.022;4.782;2023-05-09T11:20:54;16.80;99.90
35682;DHT22;21805;51.022;4.782;2023-05-09T11:23:21;16.80;99.90
35682;DHT22;21805;51.022;4.782;2023-05-09T11:25:49;16.60;99.90
35682;DHT22;21805;51.022;4.782;2023-05-09T11:28:25;16.60;99.90
35682;DHT22;21805;51.022;4.782;2023-05-09T11:31:16;16.70;99.90
35682;DHT22;21805;51.022;4.782;2023-05-09T11:33:38;16.60;99.90
35682;DHT22;21805;51.022;4.782;2023-05-09T11:39:09;16.70;99.90
35682;DHT22;21805;51.022;4.782;2023-05-09T11:41:41;16.70;99.90
35682;DHT22;21805;51.022;4.782;2023-05-09T11:44:20;16.80;99.90
35682;DHT22;21805;51.022;4.782;2023-05-09T11:46:46;16.80;99.90
35682;DHT22;21805;51.022;4.782;2023-05-09T11:49:12;16.90;99.90
35682;DHT22;21805;51.022;4.782;2023-05-09T11:51:38;17.00;99.90
35682;DHT22;21805;51.022;4.782;2023-05-09T11:54:04;17.00;99.90
35682;DHT22;21805;51.022;4.782;2023-05-09T11:56:31;17.10;99.90
35682;DHT22;21805;51.022;4.782;2023-05-09T11:58:57;17.10;99.90
35682;DHT22;21805;51.022;4.782;2023-05-09T12:01:23;16.90;99.90
35682;DHT22;21805;51.022;4.782;2023-05-09T12:03:50;16.90;99.90
35682;DHT22;21805;51.022;4.782;2023-05-09T12:06:16;16.90;99.90
35682;DHT22;21805;51.022;4.782;2023-05-09T12:08:43;16.80;99.90
35682;DHT22;21805;51.022;4.782;2023-05-09T12:11:09;16.90;99.90
35682;DHT22;21805;51.022;4.782;2023-05-09T12:13:34;16.80;99.90
35682;DHT22;21805;51.022;4.782;2023-05-09T12:16:00;16.90;99.90
35682;DHT22;21805;51.022;4.782;2023-05-09T12:18:26;16.90;99.90
35682;DHT22;21805;51.022;4.782;2023-05-09T12:20:52;16.90;99.90
35682;DHT22;21805;51.022;4.782;2023-05-09T12:23:19;16.90;99.90
35682;DHT22;21805;51.022;4.782;2023-05-09T12:25:55;16.80;99.90
35682;DHT22;21805;51.022;4.782;2023-05-09T12:28:21;17.00;99.90
35682;DHT22;21805;51.022;4.782;2023-05-09T12:30:47;16.90;99.90
35682;DHT22;21805;51.022;4.782;2023-05-09T12:33:14;16.90;99.90
35682;DHT22;21805;51.022;4.782;2023-05-09T12:36:04;17.00;99.90
35682;DHT22;21805;51.022;4.782;2023-05-09T12:38:30;17.00;99.90
35682;DHT22;21805;51.022;4.782;2023-05-09T12:41:00;17.10;99.90
35682;DHT22;21805;51.022;4.782;2023-05-09T12:43:38;17.00;99.90
35682;DHT22;21805;51.022;4.782;2023-05-09T12:46:05;16.90;99.90
35682;DHT22;21805;51.022;4.782;2023-05-09T12:48:34;17.00;99.90
35682;DHT22;21805;51.022;4.782;2023-05-09T12:51:03;17.10;99.90
35682;DHT22;21805;51.022;4.782;2023-05-09T12:53:28;17.10;99.90
35682;DHT22;21805;51.022;4.782;2023-05-09T12:59:15;17.10;99.90
35682;DHT22;21805;51.022;4.782;2023-05-09T13:01:56;17.00;99.90
35682;DHT22;21805;51.022;4.782;2023-05-09T13:04:25;17.00;99.90
35682;DHT22;21805;51.022;4.782;2023-05-09T13:07:11;17.00;99.90
35682;DHT22;21805;51.022;4.782;2023-05-09T13:09:39;17.00;99.90
35682;DHT22;21805;51.022;4.782;2023-05-09T13:12:18;17.00;99.90
35682;DHT22;21805;51.022;4.782;2023-05-09T13:14:45;17.00;99.90
35682;DHT22;21805;51.022;4.782;2023-05-09T13:17:17;17.10;99.90
35682;DHT22;21805;51.022;4.782;2023-05-09T13:19:49;17.00;99.90
35682;DHT22;21805;51.022;4.782;2023-05-09T13:22:14;17.10;99.90
35682;DHT22;21805;51.022;4.782;2023-05-09T13:24:42;17.00;99.90
35682;DHT22;21805;51.022;4.782;2023-05-09T13:27:08;17.00;99.90
35682;DHT22;21805;51.022;4.782;2023-05-09T13:29:35;17.00;99.90
35682;DHT22;21805;51.022;4.782;2023-05-09T13:32:00;17.10;99.90
35682;DHT22;21805;51.022;4.782;2023-05-09T13:34:28;17.10;99.90
35682;DHT22;21805;51.022;4.782;2023-05-09T13:36:57;17.00;99.90
35682;DHT22;21805;51.022;4.782;2023-05-09T13:39:22;17.10;99.90
35682;DHT22;21805;51.022;4.782;2023-05-09T13:41:48;17.10;99.90
35682;DHT22;21805;51.022;4.782;2023-05-09T13:44:17;17.00;99.90
35682;DHT22;21805;51.022;4.782;2023-05-09T13:46:44;17.00;99.90
35682;DHT22;21805;51.022;4.782;2023-05-09T13:49:11;17.00;99.90
35682;DHT22;21805;51.022;4.782;2023-05-09T13:51:37;17.00;99.90
35682;DHT22;21805;51.022;4.782;2023-05-09T13:54:04;17.00;99.90
35682;DHT22;21805;51.022;4.782;2023-05-09T13:56:34;17.00;99.90
35682;DHT22;21805;51.022;4.782;2023-05-09T13:59:00;16.90;99.90
35682;DHT22;21805;51.022;4.782;2023-05-09T14:01:26;16.80;99.90
35682;DHT22;21805;51.022;4.782;2023-05-09T14:03:51;16.90;99.90
35682;DHT22;21805;51.022;4.782;2023-05-09T14:06:18;16.90;99.90
35682;DHT22;21805;51.022;4.782;2023-05-09T14:08:43;16.90;99.90
35682;DHT22;21805;51.022;4.782;2023-05-09T14:11:09;16.80;99.90
35682;DHT22;21805;51.022;4.782;2023-05-09T14:13:35;16.80;99.90
35682;DHT22;21805;51.022;4.782;2023-05-09T14:16:00;16.80;99.90
35682;DHT22;21805;51.022;4.782;2023-05-09T14:18:27;16.80;99.90
35682;DHT22;21805;51.022;4.782;2023-05-09T14:20:54;16.90;99.90
35682;DHT22;21805;51.022;4.782;2023-05-09T14:23:20;16.90;99.90
35682;DHT22;21805;51.022;4.782;2023-05-09T14:25:49;17.00;99.90
35682;DHT22;21805;51.022;4.782;2023-05-09T14:28:15;17.00;99.90
35682;DHT22;21805;51.022;4.782;2023-05-09T14:30:42;16.90;99.90
35682;DHT22;21805;51.022;4.782;2023-05-09T14:33:08;16.80;99.90
35682;DHT22;21805;51.022;4.782;2023-05-09T14:35:36;16.80;99.90
35682;DHT22;21805;51.022;4.782;2023-05-09T14:38:03;16.80;99.90
35682;DHT22;21805;51.022;4.782;2023-05-09T14:40:36;16.70;99.90
35682;DHT22;21805;51.022;4.782;2023-05-09T14:43:01;16.60;99.90
35682;DHT22;21805;51.022;4.782;2023-05-09T14:45:27;16.70;99.90
35682;DHT22;21805;51.022;4.782;2023-05-09T14:47:53;16.70;99.90
35682;DHT22;21805;51.022;4.782;2023-05-09T14:50:19;16.70;99.90
35682;DHT22;21805;51.022;4.782;2023-05-09T14:52:47;16.70;99.90
35682;DHT22;21805;51.022;4.782;2023-05-09T14:55:13;16.80;99.90
35682;DHT22;21805;51.022;4.782;2023-05-09T14:57:38;16.80;99.90
35682;DHT22;21805;51.022;4.782;2023-05-09T15:00:04;16.70;99.90
35682;DHT22;21805;51.022;4.782;2023-05-09T15:02:31;16.70;99.90
35682;DHT22;21805;51.022;4.782;2023-05-09T15:04:58;16.70;99.90
35682;DHT22;21805;51.022;4.782;2023-05-09T15:07:24;16.70;99.90
35682;DHT22;21805;51.022;4.782;2023-05-09T15:09:50;16.70;99.90
35682;DHT22;21805;51.022;4.782;2023-05-09T15:12:16;16.70;99.90
35682;DHT22;21805;51.022;4.782;2023-05-09T15:14:41;16.70;99.90
35682;DHT22;21805;51.022;4.782;2023-05-09T15:17:07;16.70;99.90
35682;DHT22;21805;51.022;4.782;2023-05-09T15:19:33;16.70;99.90
35682;DHT22;21805;51.022;4.782;2023-05-09T15:22:00;16.70;99.90
35682;DHT22;21805;51.022;4.782;2023-05-09T15:24:29;16.70;99.90
35682;DHT22;21805;51.022;4.782;2023-05-09T15:26:58;16.70;99.90
35682;DHT22;21805;51.022;4.782;2023-05-09T15:29:24;16.60;99.90
35682;DHT22;21805;51.022;4.782;2023-05-09T15:31:51;16.60;99.90
35682;DHT22;21805;51.022;4.782;2023-05-09T15:34:19;16.50;99.90
35682;DHT22;21805;51.022;4.782;2023-05-09T15:36:47;16.50;99.90
35682;DHT22;21805;51.022;4.782;2023-05-09T15:39:14;16.50;99.90
35682;DHT22;21805;51.022;4.782;2023-05-09T15:41:40;16.40;99.90
35682;DHT22;21805;51.022;4.782;2023-05-09T15:44:05;16.40;99.90
35682;DHT22;21805;51.022;4.782;2023-05-09T15:46:31;16.40;99.90
35682;DHT22;21805;51.022;4.782;2023-05-09T15:48:57;16.30;99.90
35682;DHT22;21805;51.022;4.782;2023-05-09T15:51:24;16.30;99.90
35682;DHT22;21805;51.022;4.782;2023-05-09T15:53:54;16.40;99.90
35682;DHT22;21805;51.022;4.782;2023-05-09T15:56:22;16.40;99.90
35682;DHT22;21805;51.022;4.782;2023-05-09T15:58:48;16.40;99.90
35682;DHT22;21805;51.022;4.782;2023-05-09T16:01:13;16.30;99.90
35682;DHT22;21805;51.022;4.782;2023-05-09T16:03:39;16.40;99.90
35682;DHT22;21805;51.022;4.782;2023-05-09T16:06:05;16.40;99.90
35682;DHT22;21805;51.022;4.782;2023-05-09T16:08:31;16.40;99.90
35682;DHT22;21805;51.022;4.782;2023-05-09T16:10:56;16.50;99.90
35682;DHT22;21805;51.022;4.782;2023-05-09T16:13:26;16.50;99.90
35682;DHT22;21805;51.022;4.782;2023-05-09T16:15:51;16.50;99.90
35682;DHT22;21805;51.022;4.782;2023-05-09T16:18:18;16.50;99.90
35682;DHT22;21805;51.022;4.782;2023-05-09T16:20:43;16.50;99.90
35682;DHT22;21805;51.022;4.782;2023-05-09T16:23:09;16.50;99.90
35682;DHT22;21805;51.022;4.782;2023-05-09T16:25:35;16.50;99.90
35682;DHT22;21805;51.022;4.782;2023-05-09T16:28:01;16.40;99.90
35682;DHT22;21805;51.022;4.782;2023-05-09T16:30:30;16.50;99.90
35682;DHT22;21805;51.022;4.782;2023-05-09T16:32:56;16.50;99.90
35682;DHT22;21805;51.022;4.782;2023-05-09T16:35:22;16.40;99.90
35682;DHT22;21805;51.022;4.782;2023-05-09T16:37:48;16.40;99.90
35682;DHT22;21805;51.022;4.782;2023-05-09T16:40:14;16.50;99.90
35682;DHT22;21805;51.022;4.782;2023-05-09T16:42:41;16.40;99.90
35682;DHT22;21805;51.022;4.782;2023-05-09T16:45:07;16.40;99.90
35682;DHT22;21805;51.022;4.782;2023-05-09T16:47:35;16.40;99.90
35682;DHT22;21805;51.022;4.782;2023-05-09T16:50:00;16.50;99.90
35682;DHT22;21805;51.022;4.782;2023-05-09T16:52:26;16.50;99.90
35682;DHT22;21805;51.022;4.782;2023-05-09T16:54:52;16.40;99.90
35682;DHT22;21805;51.022;4.782;2023-05-09T16:57:19;16.40;99.90
35682;DHT22;21805;51.022;4.782;2023-05-09T16:59:44;16.40;99.90
35682;DHT22;21805;51.022;4.782;2023-05-09T17:02:12;16.30;99.90
35682;DHT22;21805;51.022;4.782;2023-05-09T17:04:38;16.40;99.90
35682;DHT22;21805;51.022;4.782;2023-05-09T17:07:06;16.30;99.90
35682;DHT22;21805;51.022;4.782;2023-05-09T17:09:32;16.40;99.90
35682;DHT22;21805;51.022;4.782;2023-05-09T17:12:00;16.30;99.90
35682;DHT22;21805;51.022;4.782;2023-05-09T17:14:25;16.40;99.90
35682;DHT22;21805;51.022;4.782;2023-05-09T17:16:51;16.30;99.90
35682;DHT22;21805;51.022;4.782;2023-05-09T17:19:17;16.40;99.90
35682;DHT22;21805;51.022;4.782;2023-05-09T17:21:43;16.40;99.90
35682;DHT22;21805;51.022;4.782;2023-05-09T17:24:08;16.40;99.90
35682;DHT22;21805;51.022;4.782;2023-05-09T17:26:34;16.50;99.90
35682;DHT22;21805;51.022;4.782;2023-05-09T17:29:00;16.50;99.90
35682;DHT22;21805;51.022;4.782;2023-05-09T17:31:27;16.50;99.90
35682;DHT22;21805;51.022;4.782;2023-05-09T17:33:54;16.50;99.90
35682;DHT22;21805;51.022;4.782;2023-05-09T17:36:20;16.50;99.90
35682;DHT22;21805;51.022;4.782;2023-05-09T17:38:46;16.60;99.90
35682;DHT22;21805;51.022;4.782;2023-05-09T17:41:12;16.60;99.90
35682;DHT22;21805;51.022;4.782;2023-05-09T17:43:38;16.60;99.90
35682;DHT22;21805;51.022;4.782;2023-05-09T17:46:03;16.50;99.90
35682;DHT22;21805;51.022;4.782;2023-05-09T17:48:29;16.60;99.90
35682;DHT22;21805;51.022;4.782;2023-05-09T17:50:54;16.60;99.90
35682;DHT22;21805;51.022;4.782;2023-05-09T17:53:20;16.50;99.90
35682;DHT22;21805;51.022;4.782;2023-05-09T17:55:55;16.60;99.90
35682;DHT22;21805;51.022;4.782;2023-05-09T17:58:21;16.50;99.90
35682;DHT22;21805;51.022;4.782;2023-05-09T18:00:51;16.50;99.90
35682;DHT22;21805;51.022;4.782;2023-05-09T18:03:17;16.50;99.90
35682;DHT22;21805;51.022;4.782;2023-05-09T18:05:44;16.50;99.90
35682;DHT22;21805;51.022;4.782;2023-05-09T18:08:09;16.50;99.90
35682;DHT22;21805;51.022;4.782;2023-05-09T18:10:35;16.50;99.90
35682;DHT22;21805;51.022;4.782;2023-05-09T18:13:02;16.50;99.90
35682;DHT22;21805;51.022;4.782;2023-05-09T18:15:28;16.60;99.90
35682;DHT22;21805;51.022;4.782;2023-05-09T18:17:53;16.60;99.90
35682;DHT22;21805;51.022;4.782;2023-05-09T18:20:20;16.60;99.90
35682;DHT22;21805;51.022;4.782;2023-05-09T18:22:46;16.50;99.90
35682;DHT22;21805;51.022;4.782;2023-05-09T18:25:12;16.60;99.90
35682;DHT22;21805;51.022;4.782;2023-05-09T18:27:38;16.60;99.90
35682;DHT22;21805;51.022;4.782;2023-05-09T18:30:04;16.60;99.90
35682;DHT22;21805;51.022;4.782;2023-05-09T18:32:31;16.60;99.90
35682;DHT22;21805;51.022;4.782;2023-05-09T18:34:57;16.60;99.90
35682;DHT22;21805;51.022;4.782;2023-05-09T18:37:23;16.50;99.90
35682;DHT22;21805;51.022;4.782;2023-05-09T18:39:50;16.50;99.90
35682;DHT22;21805;51.022;4.782;2023-05-09T18:42:15;16.50;99.90
35682;DHT22;21805;51.022;4.782;2023-05-09T18:44:41;16.50;99.90
35682;DHT22;21805;51.022;4.782;2023-05-09T18:47:07;16.50;99.90
35682;DHT22;21805;51.022;4.782;2023-05-09T18:49:32;16.50;99.90
35682;DHT22;21805;51.022;4.782;2023-05-09T18:51:59;16.50;99.90
35682;DHT22;21805;51.022;4.782;2023-05-09T18:54:25;16.50;99.90
35682;DHT22;21805;51.022;4.782;2023-05-09T18:56:51;16.50;99.90
35682;DHT22;21805;51.022;4.782;2023-05-09T18:59:35;16.50;99.90
35682;DHT22;21805;51.022;4.782;2023-05-09T19:02:21;16.50;99.90
35682;DHT22;21805;51.022;4.782;2023-05-09T19:04:48;16.40;99.90
35682;DHT22;21805;51.022;4.782;2023-05-09T19:07:16;16.50;99.90
35682;DHT22;21805;51.022;4.782;2023-05-09T19:09:43;16.50;99.90
35682;DHT22;21805;51.022;4.782;2023-05-09T19:12:08;16.50;99.90
35682;DHT22;21805;51.022;4.782;2023-05-09T19:14:34;16.40;99.90
35682;DHT22;21805;51.022;4.782;2023-05-09T19:17:03;16.50;99.90
35682;DHT22;21805;51.022;4.782;2023-05-09T19:19:32;16.40;99.90
35682;DHT22;21805;51.022;4.782;2023-05-09T19:21:58;16.40;99.90
35682;DHT22;21805;51.022;4.782;2023-05-09T19:24:26;16.40;99.90
35682;DHT22;21805;51.022;4.782;2023-05-09T19:26:52;16.40;99.90
35682;DHT22;21805;51.022;4.782;2023-05-09T19:29:19;16.40;99.90
35682;DHT22;21805;51.022;4.782;2023-05-09T19:31:45;16.30;99.90
35682;DHT22;21805;51.022;4.782;2023-05-09T19:34:11;16.40;99.90
35682;DHT22;21805;51.022;4.782;2023-05-09T19:36:39;16.30;99.90
35682;DHT22;21805;51.022;4.782;2023-05-09T19:39:05;16.40;99.90
35682;DHT22;21805;51.022;4.782;2023-05-09T19:41:35;16.30;99.90
35682;DHT22;21805;51.022;4.782;2023-05-09T19:44:04;16.40;99.90
35682;DHT22;21805;51.022;4.782;2023-05-09T19:46:31;16.40;99.90
35682;DHT22;21805;51.022;4.782;2023-05-09T19:48:58;16.40;99.90
35682;DHT22;21805;51.022;4.782;2023-05-09T19:51:24;16.40;99.90
35682;DHT22;21805;51.022;4.782;2023-05-09T19:53:50;16.30;99.90
35682;DHT22;21805;51.022;4.782;2023-05-09T19:56:16;16.30;99.90
35682;DHT22;21805;51.022;4.782;2023-05-09T19:58:41;16.30;99.90
35682;DHT22;21805;51.022;4.782;2023-05-09T20:01:07;16.30;99.90
35682;DHT22;21805;51.022;4.782;2023-05-09T20:03:33;16.30;99.90
35682;DHT22;21805;51.022;4.782;2023-05-09T20:06:03;16.30;99.90
35682;DHT22;21805;51.022;4.782;2023-05-09T20:08:28;16.30;99.90
35682;DHT22;21805;51.022;4.782;2023-05-09T20:10:55;16.30;99.90
35682;DHT22;21805;51.022;4.782;2023-05-09T20:13:21;16.30;99.90
35682;DHT22;21805;51.022;4.782;2023-05-09T20:15:47;16.20;99.90
35682;DHT22;21805;51.022;4.782;2023-05-09T20:18:12;16.20;99.90
35682;DHT22;21805;51.022;4.782;2023-05-09T20:20:41;16.20;99.90
35682;DHT22;21805;51.022;4.782;2023-05-09T20:23:08;16.30;99.90
35682;DHT22;21805;51.022;4.782;2023-05-09T20:25:35;16.20;99.90
35682;DHT22;21805;51.022;4.782;2023-05-09T20:28:00;16.20;99.90
35682;DHT22;21805;51.022;4.782;2023-05-09T20:30:26;16.20;99.90
35682;DHT22;21805;51.022;4.782;2023-05-09T20:32:52;16.30;99.90
35682;DHT22;21805;51.022;4.782;2023-05-09T20:35:17;16.20;99.90
35682;DHT22;21805;51.022;4.782;2023-05-09T20:37:43;16.20;99.90
35682;DHT22;21805;51.022;4.782;2023-05-09T21:11:13;16.10;99.90
35682;DHT22;21805;51.022;4.782;2023-05-09T21:13:39;16.20;99.90
35682;DHT22;21805;51.022;4.782;2023-05-09T21:16:08;16.10;99.90
35682;DHT22;21805;51.022;4.782;2023-05-09T21:18:36;16.20;99.90
35682;DHT22;21805;51.022;4.782;2023-05-09T21:21:04;16.20;99.90
35682;DHT22;21805;51.022;4.782;2023-05-09T21:23:33;16.20;99.90
35682;DHT22;21805;51.022;4.782;2023-05-09T21:25:59;16.20;99.90
35682;DHT22;21805;51.022;4.782;2023-05-09T21:28:26;16.20;99.90
35682;DHT22;21805;51.022;4.782;2023-05-09T21:30:53;16.10;99.90
35682;DHT22;21805;51.022;4.782;2023-05-09T21:33:19;16.10;99.90
35682;DHT22;21805;51.022;4.782;2023-05-09T21:35:49;16.10;99.90
35682;DHT22;21805;51.022;4.782;2023-05-09T21:38:17;16.10;99.90
35682;DHT22;21805;51.022;4.782;2023-05-09T21:40:50;16.20;99.90
35682;DHT22;21805;51.022;4.782;2023-05-09T21:43:25;16.20;99.90
35682;DHT22;21805;51.022;4.782;2023-05-09T21:48:30;16.10;99.90
35682;DHT22;21805;51.022;4.782;2023-05-09T21:51:02;16.10;99.90
35682;DHT22;21805;51.022;4.782;2023-05-09T21:53:28;16.10;99.90
35682;DHT22;21805;51.022;4.782;2023-05-09T21:55:54;16.10;99.90
35682;DHT22;21805;51.022;4.782;2023-05-09T21:58:20;16.20;99.90
35682;DHT22;21805;51.022;4.782;2023-05-09T22:00:46;16.20;99.90
35682;DHT22;21805;51.022;4.782;2023-05-09T22:03:11;16.20;99.90
35682;DHT22;21805;51.022;4.782;2023-05-09T22:05:38;16.20;99.90
35682;DHT22;21805;51.022;4.782;2023-05-09T22:08:05;16.20;99.90
35682;DHT22;21805;51.022;4.782;2023-05-09T22:10:35;16.20;99.90
35682;DHT22;21805;51.022;4.782;2023-05-09T22:13:04;16.20;99.90
35682;DHT22;21805;51.022;4.782;2023-05-09T22:15:35;16.20;99.90
35682;DHT22;21805;51.022;4.782;2023-05-09T22:18:06;16.10;99.90
35682;DHT22;21805;51.022;4.782;2023-05-09T22:20:32;16.20;99.90
35682;DHT22;21805;51.022;4.782;2023-05-09T22:22:58;16.20;99.90
35682;DHT22;21805;51.022;4.782;2023-05-09T22:25:24;16.10;99.90
35682;DHT22;21805;51.022;4.782;2023-05-09T22:27:52;16.20;99.90
35682;DHT22;21805;51.022;4.782;2023-05-09T22:30:17;16.10;99.90
35682;DHT22;21805;51.022;4.782;2023-05-09T22:32:43;16.00;99.90
35682;DHT22;21805;51.022;4.782;2023-05-09T22:35:09;16.00;99.90
35682;DHT22;21805;51.022;4.782;2023-05-09T22:37:35;16.00;99.90
35682;DHT22;21805;51.022;4.782;2023-05-09T22:40:01;16.00;99.90
35682;DHT22;21805;51.022;4.782;2023-05-09T22:42:27;16.10;99.90
35682;DHT22;21805;51.022;4.782;2023-05-09T22:44:55;16.10;99.90
35682;DHT22;21805;51.022;4.782;2023-05-09T22:47:24;16.10;99.90
35682;DHT22;21805;51.022;4.782;2023-05-09T22:49:50;16.10;99.90
35682;DHT22;21805;51.022;4.782;2023-05-09T22:52:16;16.00;99.90
35682;DHT22;21805;51.022;4.782;2023-05-09T22:54:48;16.00;99.90
35682;DHT22;21805;51.022;4.782;2023-05-09T22:57:17;16.00;99.90
35682;DHT22;21805;51.022;4.782;2023-05-09T22:59:47;15.90;99.90
35682;DHT22;21805;51.022;4.782;2023-05-09T23:02:13;16.00;99.90
35682;DHT22;21805;51.022;4.782;2023-05-09T23:04:39;16.00;99.90
35682;DHT22;21805;51.022;4.782;2023-05-09T23:07:05;16.10;99.90
35682;DHT22;21805;51.022;4.782;2023-05-09T23:09:32;16.00;99.90
35682;DHT22;21805;51.022;4.782;2023-05-09T23:11:59;16.00;99.90
35682;DHT22;21805;51.022;4.782;2023-05-09T23:14:25;16.00;99.90
35682;DHT22;21805;51.022;4.782;2023-05-09T23:16:52;15.90;99.90
35682;DHT22;21805;51.022;4.782;2023-05-09T23:19:18;16.00;99.90
35682;DHT22;21805;51.022;4.782;2023-05-09T23:21:44;15.90;99.90
35682;DHT22;21805;51.022;4.782;2023-05-09T23:26:38;15.80;99.90
35682;DHT22;21805;51.022;4.782;2023-05-09T23:29:04;15.90;99.90
35682;DHT22;21805;51.022;4.782;2023-05-09T23:31:30;15.90;99.90
35682;DHT22;21805;51.022;4.782;2023-05-09T23:33:56;15.80;99.90
35682;DHT22;21805;51.022;4.782;2023-05-09T23:38:56;15.80;99.90
35682;DHT22;21805;51.022;4.782;2023-05-09T23:41:22;15.80;99.90
35682;DHT22;21805;51.022;4.782;2023-05-09T23:43:49;15.80;99.90
35682;DHT22;21805;51.022;4.782;2023-05-09T23:46:15;15.80;99.90
35682;DHT22;21805;51.022;4.782;2023-05-09T23:48:41;15.70;99.90
35682;DHT22;21805;51.022;4.782;2023-05-09T23:51:06;15.80;99.90
35682;DHT22;21805;51.022;4.782;2023-05-09T23:53:32;15.70;99.90
35682;DHT22;21805;51.022;4.782;2023-05-09T23:56:03;15.70;99.90
35682;DHT22;21805;51.022;4.782;2023-05-09T23:58:30;15.60;99.90
